Terminal Aerodrome Forecast
Issued by NWS Huntsville, AL

Home | Current Version | Previous Version | Text Only | Print | Product List | Glossary On
Versions: 1 2 3 4 5 6 7 8 9 10 11 12 13 14 15 16 17
000
FTUS44 KHUN 301151 AAA
TAFMSL
TAF AMD
KMSL 301151Z 3012/3112 VRB03KT P6SM SCT009 SCT035 BKN250
      TEMPO 3012/3014 BKN009
     FM301500 25007KT P6SM BKN035
     FM310000 VRB03KT P6SM SCT050 SCT250=

USA.gov is the U.S. government's official web portal to all federal, state and local government web resources and services.